Time;durP1;ratioP1;P1;durP2;ratioP2;P2;SDS_P1;SDS_P2;PMS_P1;PMS_P2;Temp;Humidity;BMP_temperature;BMP_pressure;BME280_temperature;BME280_humidity;BME280_pressure;Samples;Min_cycle;Max_cycle;Signal;HPM_P1;HPM_P2
2021/06/11 00:00:48;;;;;;;7.00;6.15;;;;;;;16.43;81.38;101115.50;4945452;28;20039;-79
2021/06/11 00:03:20;;;;;;;6.38;5.65;;;;;;;16.42;81.25;101113.78;4933595;29;20061;-78
2021/06/11 00:05:46;;;;;;;7.20;6.05;;;;;;;16.38;81.66;101115.66;4915140;29;20126;-78
2021/06/11 00:08:19;;;;;;;5.88;5.38;;;;;;;16.31;81.92;101120.38;4946349;28;20039;-80
2021/06/11 00:10:45;;;;;;;6.53;5.93;;;;;;;16.30;82.05;101115.94;4946781;28;20396;-79
2021/06/11 00:13:19;;;;;;;7.45;5.43;;;;;;;16.31;82.20;101120.38;4947525;29;20099;-79
2021/06/11 00:15:50;;;;;;;6.68;5.68;;;;;;;16.35;82.02;101123.78;4950349;29;20039;-79
2021/06/11 00:18:22;;;;;;;7.00;6.30;;;;;;;16.33;82.19;101123.00;4944744;29;20055;-79
2021/06/11 00:20:49;;;;;;;6.32;5.68;;;;;;;16.25;82.51;101120.59;4970274;28;20035;-80
2021/06/11 00:23:16;;;;;;;6.43;5.72;;;;;;;16.23;82.95;101114.47;4956679;28;20059;-78
2021/06/11 00:25:42;;;;;;;6.85;6.15;;;;;;;16.23;82.80;101117.13;4930024;29;20505;-79
2021/06/11 00:28:12;;;;;;;7.18;6.47;;;;;;;16.22;82.36;101109.16;4933143;29;20523;-79
2021/06/11 00:30:40;;;;;;;6.75;6.15;;;;;;;16.20;82.66;101109.22;4947592;29;20477;-79
2021/06/11 00:33:09;;;;;;;7.05;6.00;;;;;;;16.16;83.11;101112.06;4953398;28;20051;-78
2021/06/11 00:35:42;;;;;;;8.23;7.00;;;;;;;16.12;83.45;101108.63;4950306;29;20074;-78
2021/06/11 00:38:12;;;;;;;6.93;6.22;;;;;;;16.06;83.38;101116.88;4930643;29;20059;-80
2021/06/11 00:40:39;;;;;;;8.57;5.97;;;;;;;16.08;83.14;101111.47;4968449;28;20037;-79
2021/06/11 00:43:16;;;;;;;6.95;6.22;;;;;;;16.02;83.49;101109.88;4933620;29;20047;-80
2021/06/11 00:45:44;;;;;;;6.93;6.22;;;;;;;15.95;83.51;101106.56;4946619;29;20047;-79
2021/06/11 00:48:17;;;;;;;7.00;6.30;;;;;;;15.94;83.87;101110.16;4944334;28;20055;-79
2021/06/11 00:50:47;;;;;;;7.20;6.32;;;;;;;15.94;83.75;101101.28;4932016;28;20506;-78
2021/06/11 00:53:19;;;;;;;6.97;6.38;;;;;;;15.98;83.61;101101.16;4957795;28;20049;-77
2021/06/11 00:55:49;;;;;;;7.60;6.80;;;;;;;16.00;83.78;101109.09;4904897;29;20054;-79
2021/06/11 00:58:16;;;;;;;7.07;6.38;;;;;;;15.97;84.02;101104.72;4929486;28;20055;-80
2021/06/11 01:00:43;;;;;;;7.20;6.50;;;;;;;15.98;84.24;101101.16;4936027;28;20045;-78
2021/06/11 01:03:13;;;;;;;8.02;7.05;;;;;;;15.94;84.23;101098.63;4932689;29;20043;-79
2021/06/11 01:05:41;;;;;;;7.97;6.97;;;;;;;15.93;84.11;101103.09;4951957;28;20063;-80
2021/06/11 01:08:14;;;;;;;7.63;6.93;;;;;;;15.89;84.41;101106.81;4951739;28;20134;-80
2021/06/11 01:10:45;;;;;;;11.43;6.88;;;;;;;15.83;84.77;101112.34;4956721;28;20048;-80
2021/06/11 01:13:18;;;;;;;7.85;6.63;;;;;;;15.76;85.01;101106.34;4938823;29;20051;-80
2021/06/11 01:15:50;;;;;;;7.45;6.70;;;;;;;15.78;84.60;101111.63;4938288;28;20062;-79
2021/06/11 01:18:22;;;;;;;7.45;6.72;;;;;;;15.72;84.39;101103.84;4942469;29;20047;-81
2021/06/11 01:20:50;;;;;;;7.65;6.85;;;;;;;15.63;85.15;101109.47;4927552;29;20055;-80
2021/06/11 01:23:45;;;;;;;7.15;6.55;;;;;;;15.56;85.29;101103.47;4957460;28;20055;-79
2021/06/11 01:26:31;;;;;;;;;;;;;;;15.51;86.47;101107.22;4952248;28;20150;-80
2021/06/11 01:29:07;;;;;;;7.35;6.53;;;;;;;15.39;86.71;101111.16;4948330;28;19985;-81
2021/06/11 01:31:36;;;;;;;7.80;6.70;;;;;;;15.39;86.76;101105.84;4918280;29;20039;-80
2021/06/11 01:34:32;;;;;;;8.18;7.18;;;;;;;15.35;87.08;101109.50;4934772;28;20139;-81
2021/06/11 01:37:03;;;;;;;7.47;6.65;;;;;;;15.33;87.46;101098.91;4948699;29;20534;-80
2021/06/11 01:39:31;;;;;;;8.35;7.53;;;;;;;15.30;87.96;101098.13;4954518;28;20042;-78
2021/06/11 01:41:59;;;;;;;8.77;7.15;;;;;;;15.28;88.05;101098.19;4948113;28;20043;-81
2021/06/11 01:44:26;;;;;;;7.82;7.03;;;;;;;15.30;88.29;101101.69;4935057;29;20039;-79
2021/06/11 01:46:55;;;;;;;7.22;6.53;;;;;;;15.24;88.77;101095.69;4948226;29;20051;-80
2021/06/11 01:49:24;;;;;;;8.15;7.35;;;;;;;15.24;88.85;101090.38;4918663;29;20043;-80
2021/06/11 01:51:53;;;;;;;7.60;6.90;;;;;;;15.21;88.73;101094.84;4940481;28;20051;-79
2021/06/11 01:54:22;;;;;;;8.00;7.20;;;;;;;15.20;88.54;101093.13;4934251;29;20046;-79
2021/06/11 01:56:50;;;;;;;7.65;6.95;;;;;;;15.16;88.79;101094.16;4937354;29;20552;-79
2021/06/11 01:59:17;;;;;;;7.38;6.68;;;;;;;15.21;88.74;101093.97;4955050;28;20098;-79
2021/06/11 02:01:45;;;;;;;7.90;7.10;;;;;;;15.21;88.56;101084.19;4947131;29;20599;-78
2021/06/11 02:04:12;;;;;;;7.88;7.07;;;;;;;15.18;89.04;101084.31;4949359;29;20114;-78
2021/06/11 02:06:40;;;;;;;8.13;7.32;;;;;;;15.22;89.10;101095.75;4943335;28;20035;-79
2021/06/11 02:09:08;;;;;;;9.10;7.65;;;;;;;15.25;89.33;101094.78;4964980;28;20047;-78
2021/06/11 02:11:35;;;;;;;9.00;7.88;;;;;;;15.20;90.02;101093.13;4945246;29;20035;-79
2021/06/11 02:14:03;;;;;;;8.93;8.02;;;;;;;15.20;90.15;101084.25;4918486;29;20048;-79
2021/06/11 02:16:30;;;;;;;8.57;7.75;;;;;;;15.20;90.19;101093.13;4948581;29;20089;-78
2021/06/11 02:19:01;;;;;;;8.60;7.80;;;;;;;15.21;90.14;101089.53;4953510;29;20043;-78
2021/06/11 02:21:28;;;;;;;8.63;7.82;;;;;;;15.19;90.54;101087.84;4966731;28;20062;-79
2021/06/11 02:23:59;;;;;;;9.18;8.25;;;;;;;15.21;89.88;101092.19;4941830;28;20038;-79
2021/06/11 02:26:27;;;;;;;8.95;8.10;;;;;;;15.20;90.25;101087.78;4963466;28;20058;-80
2021/06/11 02:28:54;;;;;;;8.32;7.53;;;;;;;15.16;90.26;101086.16;4933688;29;20099;-78
2021/06/11 02:31:22;;;;;;;8.70;7.90;;;;;;;15.18;89.98;101081.66;4936264;29;20086;-79
2021/06/11 02:33:48;;;;;;;9.52;8.30;;;;;;;15.19;89.87;101079.88;4933819;29;20035;-78
2021/06/11 02:36:15;;;;;;;9.02;8.13;;;;;;;15.16;90.25;101080.84;4916061;29;20051;-78
2021/06/11 02:38:43;;;;;;;9.15;8.20;;;;;;;15.11;90.51;101085.44;4925814;29;20091;-77
2021/06/11 02:41:14;;;;;;;10.10;8.40;;;;;;;15.11;90.25;101085.44;4931401;29;20051;-79
2021/06/11 02:43:42;;;;;;;9.52;8.57;;;;;;;15.08;90.73;101088.19;4920773;29;20047;-80
2021/06/11 02:46:15;;;;;;;9.57;8.45;;;;;;;15.03;90.98;101092.78;4929460;29;20044;-78
2021/06/11 02:48:49;;;;;;;11.50;8.85;;;;;;;15.02;90.71;101091.06;4950757;28;20206;-77
2021/06/11 02:51:36;;;;;;;9.25;8.38;;;;;;;14.99;91.14;101091.16;4972814;28;20038;-79
2021/06/11 02:54:04;;;;;;;9.00;8.13;;;;;;;14.96;91.32;101095.69;4936805;29;20051;-79
2021/06/11 02:56:40;;;;;;;9.00;8.20;;;;;;;14.96;91.22;101095.69;4969938;28;20050;-80
2021/06/11 02:59:18;;;;;;;9.70;8.70;;;;;;;14.92;91.44;101094.94;4935026;29;20579;-79
2021/06/11 03:01:51;;;;;;;9.75;8.75;;;;;;;14.93;91.56;101107.31;4911452;29;20493;-79
2021/06/11 03:04:18;;;;;;;10.18;8.95;;;;;;;14.92;91.53;101105.56;4933826;29;20127;-78
2021/06/11 03:06:46;;;;;;;9.65;8.75;;;;;;;14.91;91.10;101098.50;4948789;28;20062;-79
2021/06/11 03:09:13;;;;;;;8.95;8.15;;;;;;;14.83;91.75;101100.53;4952666;28;20050;-78
2021/06/11 03:11:42;;;;;;;9.25;8.45;;;;;;;14.86;91.84;101108.41;4930229;29;20047;-80
2021/06/11 03:14:10;;;;;;;9.10;8.20;;;;;;;14.83;91.86;101108.53;4945514;29;20056;-79
2021/06/11 03:16:40;;;;;;;9.85;8.95;;;;;;;14.80;92.11;101105.97;4949667;29;20042;-78
2021/06/11 03:19:09;;;;;;;10.10;9.20;;;;;;;14.80;91.85;101103.31;4917345;29;20047;-79
2021/06/11 03:21:49;;;;;;;10.25;8.43;;;;;;;14.78;91.85;101102.47;4920218;29;20717;-79
2021/06/11 03:24:29;;;;;;;9.63;8.52;;;;;;;14.78;91.99;101108.66;4932295;28;20453;-79
2021/06/11 03:27:10;;;;;;;9.35;8.50;;;;;;;14.72;92.08;101114.19;4948914;28;20062;-80
2021/06/11 03:29:40;;;;;;;9.48;8.57;;;;;;;14.71;92.40;101111.53;4946108;28;20054;-79
2021/06/11 03:32:11;;;;;;;9.95;8.98;;;;;;;14.69;92.37;101118.69;4929079;29;20074;-79
2021/06/11 03:34:43;;;;;;;9.35;8.45;;;;;;;14.68;92.42;101116.97;4933237;29;20628;-80
2021/06/11 03:37:16;;;;;;;9.98;9.07;;;;;;;14.69;92.04;101110.72;4932142;29;20062;-79
2021/06/11 03:39:56;;;;;;;10.05;9.02;;;;;;;14.63;92.22;101115.31;4911654;29;20110;-78
2021/06/11 03:42:23;;;;;;;10.50;9.38;;;;;;;14.57;92.33;101109.31;4928873;29;20051;-79
2021/06/11 03:44:52;;;;;;;10.10;9.10;;;;;;;14.51;92.60;101113.00;4934651;29;20055;-80
2021/06/11 03:47:21;;;;;;;10.10;9.00;;;;;;;14.51;92.54;101117.47;4924873;29;20039;-79
2021/06/11 03:49:49;;;;;;;9.95;9.05;;;;;;;14.46;92.63;101106.97;4932873;29;20043;-79
2021/06/11 03:52:24;;;;;;;9.25;8.35;;;;;;;14.45;92.58;101109.63;4928863;29;20533;-78
2021/06/11 03:54:54;;;;;;;10.13;9.13;;;;;;;14.42;92.82;101105.28;4947051;28;20047;-80
2021/06/11 03:57:20;;;;;;;9.88;8.98;;;;;;;14.40;93.10;101098.28;4915863;28;20765;-79
2021/06/11 03:59:48;;;;;;;10.82;9.32;;;;;;;14.39;93.17;101099.19;4911257;29;20099;-79
2021/06/11 04:02:15;;;;;;;9.73;8.80;;;;;;;14.36;93.38;101094.81;4928255;28;20047;-80
2021/06/11 04:04:42;;;;;;;10.32;9.32;;;;;;;14.35;93.61;101101.91;4939534;29;20075;-81
2021/06/11 04:07:28;;;;;;;9.73;8.73;;;;;;;14.34;93.80;101101.97;4951242;28;20054;-80
2021/06/11 04:10:07;;;;;;;10.60;9.57;;;;;;;14.36;93.68;101105.44;4950316;28;20047;-80
2021/06/11 04:12:42;;;;;;;9.55;8.65;;;;;;;14.38;93.91;101108.97;4937091;28;20374;-81
2021/06/11 04:15:10;;;;;;;11.07;9.15;;;;;;;14.43;94.04;101096.38;4952076;28;20086;-80
2021/06/11 04:17:40;;;;;;;10.48;9.48;;;;;;;14.46;93.97;101098.09;4948382;29;20046;-80
2021/06/11 04:20:12;;;;;;;10.15;9.15;;;;;;;14.46;94.11;101092.78;4932389;29;20050;-79
2021/06/11 04:22:44;;;;;;;9.77;8.77;;;;;;;14.48;94.22;101096.28;4931729;29;20055;-80
2021/06/11 04:25:13;;;;;;;11.02;9.57;;;;;;;14.53;94.18;101095.22;4947315;29;20139;-79
2021/06/11 04:27:49;;;;;;;13.90;10.07;;;;;;;14.59;94.03;101097.72;4933208;28;20134;-80
2021/06/11 04:30:17;;;;;;;10.35;9.38;;;;;;;14.63;94.07;101091.41;4924401;29;20509;-80
2021/06/11 04:32:44;;;;;;;10.82;9.77;;;;;;;14.66;94.09;101101.06;4942736;28;20047;-79
2021/06/11 04:35:11;;;;;;;10.02;9.05;;;;;;;14.69;93.91;101102.75;4933283;28;20475;-79
2021/06/11 04:37:38;;;;;;;10.65;9.45;;;;;;;14.71;94.23;101107.09;4940111;28;20501;-79
2021/06/11 04:40:06;;;;;;;10.23;9.32;;;;;;;14.79;94.39;101099.75;4935710;29;20054;-80
2021/06/11 04:42:36;;;;;;;9.75;8.85;;;;;;;14.81;94.50;101102.38;4956129;28;20054;-80
2021/06/11 04:45:04;;;;;;;10.60;9.70;;;;;;;14.85;94.39;101094.25;4947806;28;20051;-79
2021/06/11 04:47:30;;;;;;;10.13;9.23;;;;;;;14.95;94.19;101101.94;4937057;29;20051;-79
2021/06/11 04:49:57;;;;;;;10.13;9.13;;;;;;;15.03;93.92;101107.88;4950322;28;20512;-79
2021/06/11 04:52:24;;;;;;;10.30;9.38;;;;;;;15.07;93.73;101106.88;4948219;29;20038;-80
2021/06/11 04:54:52;;;;;;;10.25;9.25;;;;;;;15.13;93.75;101106.66;4961987;28;20035;-79
2021/06/11 04:57:18;;;;;;;10.98;9.88;;;;;;;15.21;94.31;101102.84;4940332;29;20043;-79
2021/06/11 04:59:45;;;;;;;10.90;9.80;;;;;;;15.30;94.06;101100.78;4952822;29;20039;-79
2021/06/11 05:02:12;;;;;;;10.20;9.23;;;;;;;15.50;93.83;101103.69;4936595;29;20087;-79
2021/06/11 05:04:38;;;;;;;10.73;9.73;;;;;;;15.45;93.90;101100.28;4935274;29;20461;-79
2021/06/11 05:07:05;;;;;;;10.25;9.32;;;;;;;15.49;93.72;101104.59;4936413;29;20053;-79
2021/06/11 05:09:32;;;;;;;9.98;9.07;;;;;;;15.54;93.92;101097.31;4933579;29;20082;-81
2021/06/11 05:11:59;;;;;;;10.90;9.90;;;;;;;15.68;93.79;101097.75;4936011;29;20417;-81
2021/06/11 05:14:26;;;;;;;9.90;9.00;;;;;;;16.03;92.34;101095.63;4938942;28;20039;-81
2021/06/11 05:16:53;;;;;;;9.88;8.90;;;;;;;16.83;87.86;101099.75;4954570;28;20047;-81
2021/06/11 05:19:20;;;;;;;9.48;8.43;;;;;;;17.33;85.40;101096.84;4937393;29;20122;-81
2021/06/11 05:21:47;;;;;;;9.13;8.25;;;;;;;17.23;85.14;101090.13;4917346;29;20048;-81
2021/06/11 05:24:14;;;;;;;8.27;7.57;;;;;;;17.35;85.44;101094.97;4935696;29;20114;-81
2021/06/11 05:26:41;;;;;;;10.40;8.40;;;;;;;17.48;85.32;101089.97;4937923;28;20408;-79
2021/06/11 05:29:07;;;;;;;9.20;8.40;;;;;;;17.25;85.67;101088.28;4953224;29;20080;-79
2021/06/11 05:31:34;;;;;;;8.77;7.88;;;;;;;17.29;86.15;101092.53;4951531;28;20038;-80
2021/06/11 05:34:01;;;;;;;449.25;60.13;;;;;;;17.34;85.86;101093.22;4938822;29;20035;-80
2021/06/11 05:36:28;;;;;;;79.18;14.98;;;;;;;17.33;85.54;101094.16;4952281;28;20071;-80
2021/06/11 05:38:55;;;;;;;42.53;10.70;;;;;;;17.62;84.69;101086.72;4958071;28;20051;-80
2021/06/11 05:41:23;;;;;;;58.85;14.52;;;;;;;18.09;83.42;101076.66;4952931;29;20039;-80
2021/06/11 05:43:51;;;;;;;13.32;6.70;;;;;;;19.03;77.34;101082.06;4922752;29;20039;-80
2021/06/11 05:46:19;;;;;;;7.82;5.65;;;;;;;21.00;65.12;101074.31;4919331;29;20074;-81
2021/06/11 05:48:49;;;;;;;6.10;4.47;;;;;;;23.68;52.93;101077.25;4951844;28;20635;-80
2021/06/11 05:51:16;;;;;;;4.93;4.40;;;;;;;25.06;48.58;101081.84;4953632;28;20071;-80
2021/06/11 05:53:43;;;;;;;5.28;4.78;;;;;;;25.98;44.84;101077.50;4922595;29;20130;-80
2021/06/11 05:56:10;;;;;;;12.82;5.82;;;;;;;27.45;41.00;101075.44;4951204;29;20077;-81
2021/06/11 05:58:37;;;;;;;13.27;5.43;;;;;;;27.58;41.08;101079.81;4954665;29;20649;-80
2021/06/11 06:01:05;;;;;;;5.07;3.63;;;;;;;28.50;38.77;101073.59;4954323;28;20039;-80
2021/06/11 06:03:32;;;;;;;5.00;3.70;;;;;;;28.65;39.69;101073.19;4949448;29;20035;-80
2021/06/11 06:05:59;;;;;;;4.85;4.32;;;;;;;28.52;39.43;101071.59;4916516;29;20305;-80
2021/06/11 06:08:26;;;;;;;4.82;4.43;;;;;;;28.14;38.91;101069.50;4943403;28;20046;-80
2021/06/11 06:10:52;;;;;;;4.90;4.50;;;;;;;26.63;41.28;101066.88;4919735;29;20531;-81
2021/06/11 06:13:20;;;;;;;5.60;3.92;;;;;;;26.04;44.42;101074.34;4946884;28;20101;-82
2021/06/11 06:15:47;;;;;;;4.75;4.35;;;;;;;25.32;44.81;101077.19;4953661;29;20067;-81
2021/06/11 06:18:14;;;;;;;4.68;4.18;;;;;;;25.24;46.47;101076.88;4937840;29;20078;-79
2021/06/11 06:20:46;;;;;;;3.97;3.65;;;;;;;25.35;48.14;101070.66;4936307;28;20503;-80
2021/06/11 06:23:13;;;;;;;5.10;4.55;;;;;;;25.16;45.92;101069.34;4935762;28;20091;-81
2021/06/11 06:25:40;;;;;;;5.18;4.03;;;;;;;25.08;46.69;101071.75;4947407;28;20804;-80
2021/06/11 06:28:08;;;;;;;4.25;3.78;;;;;;;25.02;47.02;101066.78;4936147;29;20039;-81
2021/06/11 06:30:37;;;;;;;5.40;4.32;;;;;;;24.84;46.53;101063.59;4936775;28;20650;-81
2021/06/11 06:33:04;;;;;;;5.28;4.78;;;;;;;24.87;46.60;101065.19;4937625;29;20079;-80
2021/06/11 06:35:31;;;;;;;5.18;4.68;;;;;;;24.96;46.73;101067.22;4936847;29;20055;-81
2021/06/11 06:37:58;;;;;;;4.72;3.97;;;;;;;25.00;46.49;101060.63;4955279;28;20040;-80
2021/06/11 06:40:25;;;;;;;4.28;3.80;;;;;;;25.21;46.15;101063.59;4953698;29;20143;-80
2021/06/11 06:42:52;;;;;;;4.65;4.10;;;;;;;25.28;44.70;101062.16;4954022;29;20042;-81
2021/06/11 06:45:20;;;;;;;4.97;3.97;;;;;;;25.44;45.21;101059.13;4931780;29;20110;-81
2021/06/11 06:47:47;;;;;;;9.00;5.18;;;;;;;24.85;45.73;101059.06;4939670;29;20054;-80
2021/06/11 06:50:17;;;;;;;7.72;4.13;;;;;;;25.01;46.30;101061.50;4952768;28;20489;-80
2021/06/11 06:52:45;;;;;;;4.03;3.63;;;;;;;25.12;48.23;101056.16;4955964;28;20085;-81
2021/06/11 06:55:13;;;;;;;5.13;3.85;;;;;;;25.26;48.04;101059.56;4938898;29;20043;-80
2021/06/11 06:57:40;;;;;;;5.60;3.92;;;;;;;25.27;45.39;101057.72;4955267;28;20047;-80
2021/06/11 07:00:08;;;;;;;4.30;3.45;;;;;;;25.49;44.39;101048.84;4936662;28;20097;-79
2021/06/11 07:02:35;;;;;;;3.47;3.17;;;;;;;25.47;43.90;101057.03;4936785;29;20111;-79
2021/06/11 07:05:03;;;;;;;6.53;4.15;;;;;;;25.38;44.07;101052.34;4937516;29;20605;-80
2021/06/11 07:07:30;;;;;;;6.80;4.13;;;;;;;25.31;44.32;101059.22;4933799;29;20543;-79
2021/06/11 07:09:58;;;;;;;3.95;3.55;;;;;;;25.13;45.33;101053.34;4937806;29;20069;-81
2021/06/11 07:12:26;;;;;;;5.68;4.20;;;;;;;25.17;45.56;101054.00;4956627;28;20102;-79
2021/06/11 07:14:54;;;;;;;5.18;3.95;;;;;;;25.25;44.92;101057.84;4921048;28;20071;-80
2021/06/11 07:17:21;;;;;;;6.25;3.70;;;;;;;25.21;45.67;101055.47;4938626;29;20079;-80
2021/06/11 07:19:48;;;;;;;153.27;20.55;;;;;;;25.04;45.50;101054.03;4950835;28;20066;-80
2021/06/11 07:22:15;;;;;;;9.73;4.38;;;;;;;25.12;45.46;101057.03;4938825;28;20054;-80
2021/06/11 07:24:42;;;;;;;4.50;4.07;;;;;;;25.36;43.66;101056.16;4935834;29;20039;-81
2021/06/11 07:27:09;;;;;;;3.75;3.33;;;;;;;25.21;44.58;101052.75;4951496;28;20531;-80
2021/06/11 07:29:42;;;;;;;4.10;2.95;;;;;;;25.16;45.10;101050.44;4965121;28;20042;-80
2021/06/11 07:32:14;;;;;;;4.38;3.63;;;;;;;25.21;42.53;101055.47;4951855;28;20515;-80
2021/06/11 07:34:41;;;;;;;6.45;4.60;;;;;;;24.89;42.98;101060.56;4950925;28;20137;-79
2021/06/11 07:37:08;;;;;;;4.18;3.70;;;;;;;25.43;44.07;101055.56;4949630;29;20051;-80
2021/06/11 07:39:35;;;;;;;7.28;3.95;;;;;;;25.85;43.38;101047.00;4950670;28;20126;-80
2021/06/11 07:42:02;;;;;;;6.72;4.53;;;;;;;26.19;42.82;101058.72;4933118;29;20082;-82
2021/06/11 07:44:29;;;;;;;5.15;4.15;;;;;;;26.41;42.22;101052.50;4933620;29;20039;-80
2021/06/11 07:46:56;;;;;;;4.88;4.30;;;;;;;25.89;40.90;101054.75;4934313;29;20075;-80
2021/06/11 07:49:23;;;;;;;5.72;4.40;;;;;;;25.88;41.28;101049.44;4930434;29;20062;-79
2021/06/11 07:51:51;;;;;;;3.72;3.42;;;;;;;25.84;42.62;101053.41;4937289;28;20129;-81
2021/06/11 07:54:18;;;;;;;4.55;3.40;;;;;;;26.17;42.27;101061.56;4951974;28;20053;-80
2021/06/11 07:56:48;;;;;;;6.60;4.07;;;;;;;26.54;42.90;101056.78;4934005;29;20481;-81
2021/06/11 07:59:15;;;;;;;17.35;5.05;;;;;;;26.61;41.52;101049.00;4931057;29;20050;-81
2021/06/11 08:01:42;;;;;;;4.88;3.50;;;;;;;26.83;41.09;101054.41;4948009;28;20809;-81
2021/06/11 08:04:09;;;;;;;6.22;4.32;;;;;;;26.64;39.97;101044.19;4931774;29;20517;-80
2021/06/11 08:06:37;;;;;;;4.70;4.20;;;;;;;26.50;41.03;101057.16;4910373;29;20513;-79
2021/06/11 08:09:04;;;;;;;4.82;4.13;;;;;;;26.35;41.53;101042.97;4965129;28;20066;-81
2021/06/11 08:11:31;;;;;;;5.45;4.63;;;;;;;26.46;41.54;101047.53;4939846;28;20049;-81
2021/06/11 08:13:58;;;;;;;4.05;3.60;;;;;;;26.70;41.71;101045.56;4949890;28;20053;-83
2021/06/11 08:16:25;;;;;;;4.57;4.05;;;;;;;26.93;40.86;101055.38;4979512;23;20046;-79
2021/06/11 08:18:52;;;;;;;7.90;4.25;;;;;;;27.31;40.99;101054.03;4981024;28;20046;-79
2021/06/11 08:21:22;;;;;;;3.80;3.33;;;;;;;27.72;41.05;101046.94;4952691;28;20288;-82
2021/06/11 08:23:48;;;;;;;3.88;3.50;;;;;;;28.09;39.71;101049.19;4981128;28;20042;-80
2021/06/11 08:26:15;;;;;;;4.35;3.95;;;;;;;27.90;38.88;101050.78;4988026;28;20450;-80
2021/06/11 08:28:42;;;;;;;191.70;21.88;;;;;;;27.65;40.10;101051.16;4969144;28;20061;-81
2021/06/11 08:31:09;;;;;;;8.43;3.90;;;;;;;27.68;39.89;101046.38;4971856;28;20053;-81
2021/06/11 08:33:36;;;;;;;4.97;4.47;;;;;;;27.14;40.34;101043.72;4957894;28;20100;-81
2021/06/11 08:36:03;;;;;;;4.50;4.05;;;;;;;26.51;40.75;101043.50;4969224;28;20101;-80
2021/06/11 08:38:30;;;;;;;4.88;4.35;;;;;;;26.96;40.61;101040.69;4956151;28;20058;-80
2021/06/11 08:40:56;;;;;;;126.22;17.15;;;;;;;27.23;39.63;101037.53;4955916;28;20069;-81
2021/06/11 08:43:23;;;;;;;15.25;5.43;;;;;;;27.28;38.64;101040.72;4974338;28;20046;-83
2021/06/11 08:45:50;;;;;;;5.47;4.97;;;;;;;27.60;37.85;101042.56;4949898;28;20039;-80
2021/06/11 08:48:17;;;;;;;9.70;4.15;;;;;;;27.72;38.82;101036.09;4970645;28;20043;-80
2021/06/11 08:50:44;;;;;;;5.90;3.88;;;;;;;27.82;39.11;101038.84;4951388;28;20034;-79
2021/06/11 08:53:11;;;;;;;4.60;3.65;;;;;;;27.59;38.71;101049.84;4999865;28;20039;-81
2021/06/11 08:55:38;;;;;;;5.20;3.80;;;;;;;27.27;39.57;101047.16;4954180;28;20042;-80
2021/06/11 08:58:06;;;;;;;62.45;10.80;;;;;;;27.35;38.19;101043.78;4958306;28;20053;-81
2021/06/11 09:00:35;;;;;;;4.32;3.90;;;;;;;27.78;38.81;101035.56;4975887;28;20161;-82
2021/06/11 09:03:27;;;;;;;5.13;4.28;;;;;;;27.17;37.48;101047.06;4952986;28;20053;-80
2021/06/11 09:05:59;;;;;;;9.65;4.10;;;;;;;27.02;39.44;101040.19;4968243;28;20054;-81
2021/06/11 09:08:28;;;;;;;7.88;4.25;;;;;;;27.69;39.42;101037.22;4985952;28;20645;-81
2021/06/11 09:11:24;;;;;;;6.53;4.43;;;;;;;28.32;39.23;101029.84;4956301;28;20126;-81
2021/06/11 09:14:13;;;;;;;5.68;4.38;;;;;;;28.62;37.81;101033.53;4994102;28;20045;-81
2021/06/11 09:16:51;;;;;;;5.22;4.53;;;;;;;28.68;35.43;101035.72;4972436;28;20174;-81
2021/06/11 09:19:23;;;;;;;7.47;4.10;;;;;;;28.28;36.17;101039.25;4986359;28;20132;-82
2021/06/11 09:21:51;;;;;;;4.88;4.18;;;;;;;28.58;36.35;101042.97;4966741;28;20045;-82
2021/06/11 09:24:28;;;;;;;5.45;3.58;;;;;;;28.95;36.73;101036.94;4973532;28;20042;-82
2021/06/11 09:26:57;;;;;;;13.13;6.80;;;;;;;29.26;35.37;101041.28;4955858;28;20058;-81
2021/06/11 09:29:25;;;;;;;15.38;4.90;;;;;;;29.26;35.38;101037.66;4976835;28;20042;-82
2021/06/11 09:31:54;;;;;;;20.48;5.07;;;;;;;29.19;35.54;101037.41;4988318;28;20046;-82
2021/06/11 09:34:23;;;;;;;4.60;3.40;;;;;;;28.85;35.23;101032.31;4978914;28;20075;-83
2021/06/11 09:37:01;;;;;;;5.38;3.85;;;;;;;28.46;35.22;101041.38;4961137;28;20043;-80
2021/06/11 09:39:47;;;;;;;4.95;3.90;;;;;;;28.68;36.60;101033.00;4970794;28;20042;-79
2021/06/11 09:42:17;;;;;;;4.82;4.07;;;;;;;28.87;34.70;101033.03;4968734;28;20039;-81
2021/06/11 09:44:57;;;;;;;4.05;3.65;;;;;;;29.33;34.35;101036.09;4991141;28;20038;-82
2021/06/11 09:47:35;;;;;;;6.13;3.83;;;;;;;29.47;34.85;101034.81;4985977;28;20046;-81
2021/06/11 09:50:07;;;;;;;31.30;5.75;;;;;;;29.39;33.89;101035.53;4976824;28;20049;-84
2021/06/11 09:53:03;;;;;;;5.18;3.50;;;;;;;29.10;34.72;101033.69;4956752;28;20050;-82
2021/06/11 09:55:48;;;;;;;4.45;3.75;;;;;;;29.20;35.44;101030.97;5003991;28;20554;-81
2021/06/11 09:58:21;;;;;;;5.03;4.32;;;;;;;28.82;35.52;101026.28;4976099;28;20038;-84
2021/06/11 10:00:56;;;;;;;5.88;4.15;;;;;;;29.14;35.30;101034.25;4987641;28;20038;-81
2021/06/11 10:03:28;;;;;;;7.38;3.80;;;;;;;29.15;34.15;101034.09;4968933;28;20060;-81
2021/06/11 10:06:00;;;;;;;4.55;3.90;;;;;;;29.16;34.67;101029.50;4974112;28;20054;-81
2021/06/11 10:08:28;;;;;;;4.55;3.38;;;;;;;29.09;34.23;101022.91;4989336;28;20040;-82
2021/06/11 10:10:57;;;;;;;5.00;3.58;;;;;;;29.48;34.14;101031.94;4958837;28;20573;-82
2021/06/11 10:13:24;;;;;;;5.47;4.07;;;;;;;29.73;33.36;101026.94;4971556;28;20046;-82
2021/06/11 10:15:54;;;;;;;5.55;4.25;;;;;;;29.02;32.60;101036.25;4976513;28;20035;-77
2021/06/11 10:18:22;;;;;;;3.95;3.65;;;;;;;28.62;33.62;101029.97;4955534;28;20141;-79
2021/06/11 10:20:49;;;;;;;10.52;4.00;;;;;;;28.40;35.04;101021.03;4988340;28;20119;-77
2021/06/11 10:23:20;;;;;;;8.65;3.80;;;;;;;28.45;34.73;101021.47;4959530;28;20403;-78
2021/06/11 10:25:51;;;;;;;3.70;3.35;;;;;;;28.80;34.58;101017.41;4990363;28;20042;-79
2021/06/11 10:28:20;;;;;;;29.60;6.65;;;;;;;28.62;33.20;101008.22;4984626;28;20046;-78
2021/06/11 10:30:48;;;;;;;7.07;3.90;;;;;;;28.60;32.40;101021.97;4977796;28;20096;-81
2021/06/11 10:33:15;;;;;;;4.47;3.50;;;;;;;28.38;32.55;101023.03;4982573;28;20042;-81
2021/06/11 10:35:46;;;;;;;3.63;3.25;;;;;;;28.27;33.91;101018.53;4997027;28;20054;-80
2021/06/11 10:38:32;;;;;;;3.58;3.28;;;;;;;28.73;32.65;101010.81;4987939;28;20050;-80
2021/06/11 10:41:04;;;;;;;3.63;3.33;;;;;;;28.49;31.99;101013.91;4999751;28;20046;-82
2021/06/11 10:43:36;;;;;;;4.65;4.00;;;;;;;28.48;31.75;101009.47;4985045;28;20062;-80
2021/06/11 10:46:05;;;;;;;3.45;3.13;;;;;;;28.08;32.55;101003.97;4985878;28;20081;-83
2021/06/11 10:49:24;;;;;;;3.63;3.33;;;;;;;27.74;34.30;101010.50;4962964;28;20307;-83
2021/06/11 10:51:51;;;;;;;4.15;3.75;;;;;;;27.44;34.06;101003.16;4987160;28;20046;-83
2021/06/11 10:54:23;;;;;;;3.53;3.22;;;;;;;27.87;33.86;101002.19;4972370;28;20054;-80
2021/06/11 10:56:56;;;;;;;7.78;3.85;;;;;;;28.48;33.44;101002.16;4982427;28;20065;-81
2021/06/11 10:59:39;;;;;;;4.35;3.45;;;;;;;28.80;33.27;100996.53;4983800;28;20058;-81
2021/06/11 11:02:07;;;;;;;4.15;3.85;;;;;;;29.10;33.22;101000.16;4973274;28;20061;-83
2021/06/11 11:04:35;;;;;;;3.75;3.45;;;;;;;28.55;32.75;100997.03;4975615;28;20042;-84
2021/06/11 11:07:24;;;;;;;5.43;3.58;;;;;;;27.70;33.21;101005.50;4982045;28;20054;-81
2021/06/11 11:09:55;;;;;;;4.78;3.53;;;;;;;27.83;34.78;101003.44;4994040;28;20082;-81
2021/06/11 11:12:27;;;;;;;4.43;3.70;;;;;;;28.25;33.15;101001.50;4959394;28;20043;-81
2021/06/11 11:14:59;;;;;;;3.95;3.55;;;;;;;28.78;33.69;101003.97;4972366;28;20050;-80
2021/06/11 11:17:26;;;;;;;4.75;4.00;;;;;;;29.06;33.22;100991.41;4972731;28;20530;-80
2021/06/11 11:19:58;;;;;;;6.13;3.90;;;;;;;29.26;31.81;100994.13;4963286;28;20102;-80
2021/06/11 11:22:35;;;;;;;3.58;3.10;;;;;;;29.53;31.87;100999.75;4964559;28;20047;-81
2021/06/11 11:25:14;;;;;;;3.97;3.53;;;;;;;29.54;32.03;100990.56;4987176;28;20551;-83
2021/06/11 11:27:46;;;;;;;5.85;3.40;;;;;;;29.68;30.37;100998.28;4974141;28;20050;-82
2021/06/11 11:30:13;;;;;;;5.13;3.38;;;;;;;29.82;30.90;100990.63;4954659;28;20130;-80
2021/06/11 11:32:39;;;;;;;131.40;16.77;;;;;;;29.45;30.56;100999.56;4955265;28;20035;-83
2021/06/11 11:35:07;;;;;;;3.75;3.45;;;;;;;28.92;30.30;100994.53;4971388;28;20042;-80
2021/06/11 11:37:34;;;;;;;3.60;3.30;;;;;;;29.46;31.31;100984.97;4981282;28;20039;-82